Cut Bank, MT (59427)

9:57 AM MDT on September 05, 2015 (GMT -0600)
Cut Bank, MT - North-West Side of Town | | Change Station
CLOSE
Current Station
Personal Weather Station
Location: Cut Bank, MT
Elevation: 3757 ft
Nearby Weather Stations

Elev 3757 ft 48.64 °N, 112.33 °W | Updated 1 second ago

Rain
Rain Mist
45.9 °F
Feels Like 46 °F
N
2.2
Wind Variable Wind from ESE
Gusts 3.2 mph

Today
High -- | Low -- °F
--% Chance of Precip.
Yesterday
High -- | Low -- °F
Precip. -- in
6:51 AM 8:03 PM
Waning Gibbous, 47% visible
Pressure 29.96 in
Visibility 1.0 miles
Clouds Few 300 ft
Overcast 1000 ft
Windchill 46 °F
Dew Point 46 °F
Humidity 99%
Rainfall 0.83 in
Snow Depth Not available.
UV 1 out of 12
Pollen 2.50 out of 12
Air Quality Not available.
Flu Activity Not available.
SPECI KCTB 051543Z AUTO 18004KT 1SM RA BR FEW003 OVC010 07/07 A2996 RMK AO2 P0006 T00720072
Pressure 29.96 in
Visibility 1.0 miles
Clouds Few 300 ft
Overcast 1000 ft
Windchill 46 °F
Dew Point 46 °F
Humidity 99%
Rainfall 0.83 in
Snow Depth Not available.
UV 1 out of 12
Pollen 2.50 out of 12
Air Quality Not available.
Flu Activity Not available.
SPECI KCTB 051543Z AUTO 18004KT 1SM RA BR FEW003 OVC010 07/07 A2996 RMK AO2 P0006 T00720072

10-Day Weather Forecast

×

Almanac

Astronomy

Sep. 05, 2015 Rise Set
Actual Time
Civil Twilight
Nautical Twilight
Astronomical Twilight
Moon
Length of Visible Light
Length of Day
Tomorrow will be .
, % of the Moon is Illuminated

Today's Extremes

State Highs State Lows

Community

WunderPhotos

Upload Photos

1,852,483 photos uploaded!

WunderBlogs® & News

Nearby

Air Quality

  Air Quality AQ Index Pollutant
Not available.

Snow Depth

Station Depth Elevation

Earthquake Activity

City Distance Mag. Time & Date
Minimum magnitude displayed is 2.5.

Coastal Water Temperatures

Place Temperature

Stations

Nearby Weather Stations

Station Location Temp. Windchill Dew Point Humidity Wind Precip. Elev Updated Type